createdAt,value
2024-02-03T00:00:29.424Z,61.31
2024-02-03T00:04:34.579Z,61.52
2024-02-03T00:08:36.129Z,61.30
2024-02-03T00:12:37.805Z,61.22
2024-02-03T00:16:39.447Z,61.69
2024-02-03T00:20:40.941Z,61.85
2024-02-03T00:24:42.441Z,61.90
2024-02-03T00:28:44.006Z,61.58
2024-02-03T00:32:45.637Z,61.83
2024-02-03T00:36:47.231Z,61.64
2024-02-03T00:40:48.913Z,61.65
2024-02-03T00:44:50.620Z,61.48
2024-02-03T00:48:52.243Z,62.14
2024-02-03T00:52:53.907Z,61.77
2024-02-03T00:56:55.582Z,61.96
2024-02-03T01:00:57.144Z,62.14
2024-02-03T01:04:58.824Z,62.26
2024-02-03T01:09:00.364Z,62.09
2024-02-03T01:13:03.016Z,62.38
2024-02-03T01:17:05.909Z,62.52
2024-02-03T01:21:08.364Z,62.26
2024-02-03T01:25:10.161Z,62.06
2024-02-03T01:29:11.820Z,62.36
2024-02-03T01:33:13.514Z,62.42
2024-02-03T01:37:15.116Z,62.20
2024-02-03T01:41:17.051Z,61.98
2024-02-03T01:45:18.632Z,62.52
2024-02-03T01:49:20.374Z,62.76
2024-02-03T01:53:22.268Z,62.73
2024-02-03T01:57:25.996Z,62.62
2024-02-03T02:01:27.784Z,62.48
2024-02-03T02:05:32.150Z,62.74
2024-02-03T02:09:33.791Z,62.74
2024-02-03T02:13:35.718Z,62.61
2024-02-03T02:17:37.610Z,62.62
2024-02-03T02:21:39.404Z,62.58
2024-02-03T02:25:40.949Z,62.63
2024-02-03T02:29:42.608Z,62.27
2024-02-03T02:33:44.486Z,62.69
2024-02-03T02:37:46.185Z,63.05
2024-02-03T02:41:47.702Z,63.07
2024-02-03T02:45:49.297Z,63.28
2024-02-03T02:49:51.212Z,62.95
2024-02-03T02:53:53.030Z,62.74
2024-02-03T02:57:54.606Z,63.22
2024-02-03T03:01:56.137Z,62.96
2024-02-03T03:05:58.561Z,63.26
2024-02-03T03:10:00.078Z,63.74
2024-02-03T03:14:01.680Z,63.07
2024-02-03T03:18:03.371Z,63.30
2024-02-03T03:22:07.030Z,63.58
2024-02-03T03:26:08.519Z,63.21
2024-02-03T03:30:10.492Z,63.51
2024-02-03T03:34:12.087Z,63.69
2024-02-03T03:38:13.722Z,63.57
2024-02-03T03:42:15.241Z,63.80
2024-02-03T03:46:16.723Z,63.52
2024-02-03T03:50:18.217Z,63.71
2024-02-03T03:54:19.752Z,63.73
2024-02-03T03:58:21.267Z,63.67
2024-02-03T04:02:22.846Z,63.55
2024-02-03T04:06:24.456Z,63.50
2024-02-03T04:10:25.988Z,63.43
2024-02-03T04:14:27.487Z,63.90
2024-02-03T04:18:29.136Z,63.57
2024-02-03T04:22:30.745Z,63.92
2024-02-03T04:26:32.591Z,63.74
2024-02-03T04:30:34.079Z,63.88
2024-02-03T04:34:35.672Z,63.63
2024-02-03T04:38:37.588Z,63.89
2024-02-03T04:42:39.146Z,63.71
2024-02-03T04:46:40.710Z,63.98
2024-02-03T04:50:42.355Z,63.86
2024-02-03T04:54:43.896Z,63.58
2024-02-03T04:58:45.439Z,63.51
2024-02-03T05:02:47.092Z,63.54
2024-02-03T05:06:48.717Z,64.29
2024-02-03T05:10:50.271Z,64.00
2024-02-03T05:14:51.748Z,64.30
2024-02-03T05:18:56.807Z,64.21
2024-02-03T05:22:58.411Z,64.51
2024-02-03T05:26:59.992Z,64.02
2024-02-03T05:31:01.587Z,64.14
2024-02-03T05:35:03.076Z,64.40
2024-02-03T05:39:05.062Z,64.65
2024-02-03T05:43:06.647Z,64.33
2024-02-03T05:47:08.229Z,63.93
2024-02-03T05:51:09.793Z,64.19
2024-02-03T05:55:11.427Z,64.66
2024-02-03T05:59:27.230Z,64.40
2024-02-03T06:03:34.529Z,64.56
2024-02-03T06:07:36.188Z,64.68
2024-02-03T06:11:37.783Z,64.63
2024-02-03T06:15:39.276Z,64.39
2024-02-03T06:19:43.863Z,64.93
2024-02-03T06:23:46.011Z,64.47
2024-02-03T06:27:47.595Z,64.88
2024-02-03T06:31:49.056Z,64.82
2024-02-03T06:35:50.542Z,64.10
2024-02-03T06:39:52.126Z,64.47
2024-02-03T06:43:53.831Z,64.67
2024-02-03T06:47:55.506Z,64.90
2024-02-03T06:51:57.150Z,64.85
2024-02-03T06:55:58.814Z,64.37
2024-02-03T07:00:00.416Z,64.38
2024-02-03T07:04:02.123Z,64.43
2024-02-03T07:08:03.996Z,64.43
2024-02-03T07:12:08.270Z,64.32
2024-02-03T07:16:10.446Z,64.66
2024-02-03T07:20:12.466Z,64.59
2024-02-03T07:24:14.129Z,64.56
2024-02-03T07:28:15.668Z,64.65
2024-02-03T07:32:17.249Z,64.25
2024-02-03T07:36:18.724Z,65.23
2024-02-03T07:40:20.262Z,64.23
2024-02-03T07:44:21.740Z,65.00
2024-02-03T07:48:23.411Z,64.92
2024-02-03T07:52:24.908Z,64.92
2024-02-03T07:56:26.403Z,64.70
2024-02-03T08:00:27.850Z,64.29
2024-02-03T08:04:29.516Z,64.91
2024-02-03T08:08:31.034Z,65.00
2024-02-03T08:12:32.732Z,64.98
2024-02-03T08:16:34.310Z,64.91
2024-02-03T08:20:35.814Z,64.62
2024-02-03T08:24:37.354Z,64.62
2024-02-03T08:28:38.995Z,65.26
2024-02-03T08:32:40.487Z,64.79
2024-02-03T08:36:42.030Z,64.88
2024-02-03T08:40:44.621Z,64.86
2024-02-03T08:44:46.194Z,64.89
2024-02-03T08:48:47.902Z,64.67
2024-02-03T08:52:49.508Z,64.47
2024-02-03T08:56:51.013Z,64.19
2024-02-03T09:00:52.496Z,64.98
2024-02-03T09:04:54.046Z,64.94
2024-02-03T09:08:55.828Z,64.53
2024-02-03T09:12:57.463Z,65.21
2024-02-03T09:16:59.084Z,64.53
2024-02-03T09:21:00.554Z,65.00
2024-02-03T09:25:02.163Z,64.74
2024-02-03T09:29:03.721Z,64.39
2024-02-03T09:33:05.404Z,64.45
2024-02-03T09:41:11.734Z,64.89
2024-02-03T09:45:13.560Z,64.53
2024-02-03T09:49:15.221Z,64.78
2024-02-03T09:53:17.034Z,65.02
2024-02-03T09:57:18.560Z,64.41
2024-02-03T10:01:20.177Z,65.08
2024-02-03T10:05:30.211Z,65.14
2024-02-03T10:10:51.543Z,64.75
2024-02-03T10:14:03.386Z,64.92
2024-02-03T10:18:08.728Z,64.61
2024-02-03T10:22:10.636Z,64.48
2024-02-03T10:26:12.387Z,64.70
2024-02-03T10:30:20.746Z,64.47
2024-02-03T10:34:22.684Z,65.37
2024-02-03T10:38:24.268Z,64.62
2024-02-03T10:42:26.971Z,65.12
2024-02-03T10:46:31.753Z,64.81
2024-02-03T10:50:38.564Z,65.05
2024-02-03T10:54:41.818Z,65.13
2024-02-03T10:58:43.926Z,64.93
2024-02-03T11:02:55.214Z,65.79
2024-02-03T11:07:00.096Z,65.56
2024-02-03T11:11:01.695Z,65.90
2024-02-03T11:15:09.272Z,66.04
2024-02-03T11:19:12.386Z,65.73
2024-02-03T11:23:15.312Z,66.31
2024-02-03T11:27:16.877Z,66.26
2024-02-03T11:31:18.713Z,66.63
2024-02-03T11:35:22.799Z,67.17
2024-02-03T11:39:32.025Z,67.08
2024-02-03T11:43:33.646Z,66.39
2024-02-03T11:47:35.475Z,66.80
2024-02-03T11:51:37.039Z,66.27
2024-02-03T11:55:39.525Z,67.14
2024-02-03T11:59:41.057Z,66.99
2024-02-03T12:03:42.809Z,67.07
2024-02-03T12:07:45.333Z,67.32
2024-02-03T12:11:48.394Z,67.29
2024-02-03T12:15:52.661Z,67.36
2024-02-03T12:19:55.495Z,67.33
2024-02-03T12:23:57.117Z,67.64
2024-02-03T12:27:58.821Z,67.37
2024-02-03T12:32:00.426Z,67.32
2024-02-03T12:36:02.274Z,67.83
2024-02-03T12:40:04.294Z,67.28
2024-02-03T12:44:06.965Z,67.64
2024-02-03T12:48:08.655Z,67.19
2024-02-03T12:52:10.462Z,67.67
2024-02-03T12:56:12.883Z,65.34
2024-02-03T13:00:14.893Z,64.84
2024-02-03T13:04:16.858Z,67.26
2024-02-03T13:08:18.532Z,66.85
2024-02-03T13:12:20.144Z,66.88
2024-02-03T13:16:22.783Z,66.90
2024-02-03T13:20:24.430Z,66.79
2024-02-03T13:24:26.842Z,66.99
2024-02-03T13:28:28.508Z,67.27
2024-02-03T13:32:29.985Z,66.83
2024-02-03T13:36:31.648Z,66.99
2024-02-03T13:40:33.443Z,67.45
2024-02-03T13:44:35.795Z,66.72
2024-02-03T13:48:37.458Z,67.18
2024-02-03T13:52:39.221Z,67.47
2024-02-03T13:56:42.963Z,67.61
2024-02-03T14:00:44.810Z,67.68
2024-02-03T14:04:47.328Z,66.79
2024-02-03T14:08:49.007Z,67.65
2024-02-03T14:12:52.222Z,67.55
2024-02-03T14:16:53.895Z,67.71
2024-02-03T14:20:55.612Z,68.05
2024-02-03T14:24:57.579Z,67.86
2024-02-03T14:28:59.434Z,67.18
2024-02-03T14:33:06.983Z,67.69
2024-02-03T14:37:09.204Z,67.73
2024-02-03T14:41:10.988Z,68.04
2024-02-03T14:45:12.571Z,67.66
2024-02-03T14:49:14.381Z,67.68
2024-02-03T14:53:16.085Z,67.63
2024-02-03T14:57:17.548Z,67.78
2024-02-03T15:01:19.196Z,67.26
2024-02-03T15:05:20.974Z,67.12
2024-02-03T15:09:22.784Z,67.30
2024-02-03T15:13:24.537Z,67.48
2024-02-03T15:17:26.049Z,67.36
2024-02-03T15:21:27.629Z,67.65
2024-02-03T15:25:29.401Z,68.08
2024-02-03T15:29:32.531Z,67.46
2024-02-03T15:33:38.599Z,67.54
2024-02-03T15:37:40.944Z,67.43
2024-02-03T15:41:42.624Z,67.90
2024-02-03T15:45:44.501Z,67.92
2024-02-03T15:49:46.681Z,67.78
2024-02-03T15:53:48.560Z,67.37
2024-02-03T15:57:50.268Z,66.85
2024-02-03T16:01:52.179Z,66.94
2024-02-03T16:05:53.749Z,67.56
2024-02-03T16:09:55.321Z,67.58
2024-02-03T16:13:59.641Z,67.10
2024-02-03T16:18:02.389Z,67.47
2024-02-03T16:22:06.361Z,67.02
2024-02-03T16:26:08.297Z,66.70
2024-02-03T16:30:10.312Z,66.90
2024-02-03T16:34:12.187Z,66.88
2024-02-03T16:38:14.108Z,66.57
2024-02-03T16:42:15.762Z,67.13
2024-02-03T16:46:17.569Z,66.51
2024-02-03T16:50:21.077Z,66.49
2024-02-03T16:54:22.871Z,66.04
2024-02-03T16:58:24.451Z,66.49
2024-02-03T17:02:26.455Z,67.05
2024-02-03T17:06:35.665Z,66.33
2024-02-03T17:10:37.271Z,65.67
2024-02-03T17:14:38.784Z,66.30
2024-02-03T17:18:40.568Z,66.42
2024-02-03T17:22:42.285Z,66.36
2024-02-03T17:26:43.966Z,66.55
2024-02-03T17:30:45.478Z,65.78
2024-02-03T17:34:47.599Z,65.88
2024-02-03T17:38:49.286Z,66.05
2024-02-03T17:42:51.173Z,65.64
2024-02-03T17:46:52.865Z,66.05
2024-02-03T17:50:55.834Z,66.01
2024-02-03T17:54:57.606Z,65.92
2024-02-03T17:58:59.282Z,65.93
2024-02-03T18:03:00.867Z,66.12
2024-02-03T18:07:02.731Z,65.59
2024-02-03T18:11:04.664Z,65.74
2024-02-03T18:15:06.890Z,65.37
2024-02-03T18:19:09.899Z,65.40
2024-02-03T18:23:11.554Z,66.04
2024-02-03T18:27:13.270Z,65.71
2024-02-03T18:31:14.812Z,65.30
2024-02-03T18:35:16.648Z,65.57
2024-02-03T18:39:18.307Z,65.79
2024-02-03T18:43:19.873Z,65.87
2024-02-03T18:47:21.396Z,65.37
2024-02-03T18:51:24.841Z,65.44
2024-02-03T18:55:26.404Z,65.07
2024-02-03T18:59:27.986Z,65.46
2024-02-03T19:03:29.636Z,64.89
2024-02-03T19:07:31.198Z,65.17
2024-02-03T19:11:32.775Z,65.07
2024-02-03T19:15:34.293Z,65.39
2024-02-03T19:19:37.028Z,65.10
2024-02-03T19:23:39.418Z,64.75
2024-02-03T19:27:41.858Z,65.14
2024-02-03T19:31:43.458Z,64.54
2024-02-03T19:35:45.466Z,64.50
2024-02-03T19:39:47.080Z,65.14
2024-02-03T19:43:48.561Z,65.10
2024-02-03T19:47:50.290Z,64.38
2024-02-03T19:51:52.192Z,64.57
2024-02-03T19:55:53.712Z,64.62
2024-02-03T19:59:55.210Z,64.33
2024-02-03T20:03:56.843Z,64.61
2024-02-03T20:07:59.396Z,64.40
2024-02-03T20:12:01.581Z,64.62
2024-02-03T20:16:05.062Z,64.05
2024-02-03T20:20:07.493Z,64.45
2024-02-03T20:24:09.143Z,64.77
2024-02-03T20:28:11.303Z,64.79
2024-02-03T20:32:12.890Z,64.31
2024-02-03T20:36:14.734Z,64.49
2024-02-03T20:40:16.382Z,64.63
2024-02-03T20:44:19.797Z,65.19
2024-02-03T20:48:21.454Z,64.70
2024-02-03T20:52:23.245Z,64.85
2024-02-03T20:56:24.796Z,64.02
2024-02-03T21:00:26.551Z,63.40
2024-02-03T21:04:28.246Z,63.64
2024-02-03T21:08:30.104Z,63.90
2024-02-03T21:12:32.967Z,63.44
2024-02-03T21:16:36.294Z,63.49
2024-02-03T21:20:38.138Z,63.50
2024-02-03T21:24:40.822Z,63.49
2024-02-03T21:28:42.436Z,63.70
2024-02-03T21:32:44.040Z,63.14
2024-02-03T21:36:45.835Z,63.81
2024-02-03T21:40:47.369Z,63.69
2024-02-03T21:44:48.925Z,63.51
2024-02-03T21:48:50.741Z,63.26
2024-02-03T21:52:52.338Z,63.12
2024-02-03T21:56:53.819Z,62.88
2024-02-03T22:00:55.434Z,63.25
2024-02-03T22:04:57.106Z,62.37
2024-02-03T22:08:59.578Z,63.03
2024-02-03T22:13:01.147Z,62.08
2024-02-03T22:17:02.710Z,62.50
2024-02-03T22:21:04.318Z,63.00
2024-02-03T22:25:06.362Z,62.47
2024-02-03T22:29:07.891Z,62.68
2024-02-03T22:33:09.478Z,62.84
2024-02-03T22:37:11.100Z,62.76
2024-02-03T22:41:12.581Z,62.87
2024-02-03T22:45:14.086Z,62.52
2024-02-03T22:49:16.120Z,62.50
2024-02-03T22:53:17.680Z,62.38
2024-02-03T22:57:19.313Z,62.34
2024-02-03T23:01:20.996Z,62.03
2024-02-03T23:05:23.075Z,61.47
2024-02-03T23:09:24.543Z,63.16
2024-02-03T23:13:26.052Z,61.97
2024-02-03T23:17:27.599Z,62.23
2024-02-03T23:21:29.445Z,61.97
2024-02-03T23:25:30.915Z,61.69
2024-02-03T23:29:32.390Z,61.72
2024-02-03T23:33:37.581Z,61.74
2024-02-03T23:37:39.409Z,61.89
2024-02-03T23:41:40.847Z,61.16
2024-02-03T23:45:42.497Z,60.95
2024-02-03T23:49:44.146Z,61.66
2024-02-03T23:53:45.856Z,60.68
2024-02-03T23:57:47.451Z,60.58
